Time;durP1;ratioP1;P1;durP2;ratioP2;P2;SDS_P1;SDS_P2;PMS_P1;PMS_P2;Temp;Humidity;BMP_temperature;BMP_pressure;BME280_temperature;BME280_humidity;BME280_pressure;Samples;Min_cycle;Max_cycle;Signal;HPM_P1;HPM_P2
2023/03/24 00:00:01;;;;;;;;;;;;;;;7.62;80.54;100295.99;107664;1253;125403;-82
2023/03/24 00:02:28;;;;;;;;;;;;;;;7.57;80.55;100299.69;108330;1254;65474;-82
2023/03/24 00:05:05;;;;;;;;;;;;;;;7.55;80.69;100303.10;107339;1257;71716;-84
2023/03/24 00:07:32;;;;;;;;;;;;;;;7.51;80.68;100312.08;107206;1253;124973;-84
2023/03/24 00:10:01;;;;;;;;;;;;;;;7.48;80.74;100310.07;107339;1260;61321;-83
2023/03/24 00:12:28;;;;;;;;;;;;;;;7.44;80.68;100308.00;107554;1254;126120;-84
2023/03/24 00:15:01;;;;;;;;;;;;;;;7.38;80.55;100311.50;107573;1254;67229;-84
2023/03/24 00:17:35;;;;;;;;;;;;;;;7.34;80.61;100313.11;107584;1253;72997;-84
2023/03/24 00:20:06;;;;;;;;;;;;;;;7.30;80.65;100306.34;107567;1254;60087;-81
2023/03/24 00:22:33;;;;;;;;;;;;;;;7.26;80.73;100303.78;107679;1261;61343;-81
2023/03/24 00:25:03;;;;;;;;;;;;;;;7.23;80.81;100302.14;107497;1260;125091;-81
2023/03/24 00:27:30;;;;;;;;;;;;;;;7.20;80.89;100301.34;107820;1254;66950;-81
2023/03/24 00:29:58;;;;;;;;;;;;;;;7.17;80.87;100302.98;107571;1256;125114;-81
2023/03/24 00:32:26;;;;;;;;;;;;;;;7.14;80.81;100302.72;107556;1253;62269;-81
2023/03/24 00:34:53;;;;;;;;;;;;;;;7.09;80.73;100294.36;107411;1253;61758;-81
2023/03/24 00:37:20;;;;;;;;;;;;;;;7.04;80.83;100295.59;107247;1254;124808;-81
2023/03/24 00:39:47;;;;;;;;;;;;;;;6.99;80.78;100292.30;107343;1254;65480;-81
2023/03/24 00:42:14;;;;;;;;;;;;;;;6.94;80.81;100294.41;107355;1254;125651;-81
2023/03/24 00:44:43;;;;;;;;;;;;;;;6.91;80.85;100298.31;107695;1254;60952;-81
2023/03/24 00:47:10;;;;;;;;;;;;;;;6.86;80.87;100299.91;108828;1257;59468;-81
2023/03/24 00:49:43;;;;;;;;;;;;;;;6.82;80.94;100297.69;108990;1258;124978;-81
2023/03/24 00:52:11;;;;;;;;;;;;;;;6.80;80.94;100298.30;109026;1253;65433;-81
2023/03/24 00:54:39;;;;;;;;;;;;;;;6.78;81.13;100296.66;109036;1258;124781;-81
2023/03/24 00:57:06;;;;;;;;;;;;;;;6.75;81.12;100295.38;109016;1254;58955;-81
2023/03/24 00:59:36;;;;;;;;;;;;;;;6.72;81.07;100295.08;108992;1254;59321;-81
2023/03/24 01:02:04;;;;;;;;;;;;;;;6.68;81.00;100295.84;108969;1253;73264;-80
2023/03/24 01:04:35;;;;;;;;;;;;;;;6.65;81.00;100292.23;108993;1260;65791;-82
2023/03/24 01:07:02;;;;;;;;;;;;;;;6.61;81.05;100291.24;108945;1258;125302;-82
2023/03/24 01:09:29;;;;;;;;;;;;;;;6.57;80.96;100293.38;107921;1254;59272;-81
2023/03/24 01:11:56;;;;;;;;;;;;;;;6.53;81.07;100292.54;107797;1254;125162;-83
2023/03/24 01:14:24;;;;;;;;;;;;;;;6.49;81.02;100292.05;107911;1253;74567;-80
2023/03/24 01:16:51;;;;;;;;;;;;;;;6.44;81.14;100286.81;107913;1253;66933;-83
2023/03/24 01:19:19;;;;;;;;;;;;;;;6.42;81.13;100284.33;107385;1260;124791;-82
2023/03/24 01:21:47;;;;;;;;;;;;;;;6.40;81.22;100289.65;107659;1255;60764;-83
2023/03/24 01:24:14;;;;;;;;;;;;;;;6.37;81.33;100286.95;107407;1259;125418;-82
2023/03/24 01:26:41;;;;;;;;;;;;;;;6.34;81.43;100286.16;107649;1254;73761;-81
2023/03/24 01:29:09;;;;;;;;;;;;;;;6.35;81.62;100288.79;107513;1260;65575;-81
2023/03/24 01:31:36;;;;;;;;;;;;;;;6.37;81.78;100285.02;107829;1256;125312;-80
2023/03/24 01:34:03;;;;;;;;;;;;;;;6.39;81.90;100283.20;107690;1260;61136;-81
2023/03/24 01:36:30;;;;;;;;;;;;;;;6.42;82.01;100284.86;108980;1254;125525;-83
2023/03/24 01:39:00;;;;;;;;;;;;;;;6.48;82.06;100284.70;107238;1260;74692;-83
2023/03/24 01:41:28;;;;;;;;;;;;;;;6.52;82.18;100278.36;107370;1260;65979;-80
2023/03/24 01:43:55;;;;;;;;;;;;;;;6.57;82.29;100277.17;107439;1258;125696;-80
2023/03/24 01:46:22;;;;;;;;;;;;;;;6.63;82.36;100283.63;108493;1256;59745;-80
2023/03/24 01:48:53;;;;;;;;;;;;;;;6.69;82.54;100278.77;107697;1260;125008;-81
2023/03/24 01:51:22;;;;;;;;;;;;;;;6.76;82.60;100281.43;107886;1259;73609;-80
2023/03/24 01:53:58;;;;;;;;;;;;;;;6.81;82.70;100288.76;107678;1262;124931;-80
2023/03/24 01:56:25;;;;;;;;;;;;;;;6.86;82.67;100288.20;108146;1258;71806;-79
2023/03/24 01:58:55;;;;;;;;;;;;;;;6.90;82.78;100284.85;107820;1256;61283;-80
2023/03/24 02:01:25;;;;;;;;;;;;;;;6.94;82.83;100277.64;107548;1257;124851;-83
2023/03/24 02:03:53;;;;;;;;;;;;;;;6.97;82.77;100272.36;107574;1257;73505;-84
2023/03/24 02:06:20;;;;;;;;;;;;;;;7.01;82.90;100268.81;107301;1261;125203;-81
2023/03/24 02:08:51;;;;;;;;;;;;;;;7.07;83.04;100269.52;107513;1258;71373;-80
2023/03/24 02:11:18;;;;;;;;;;;;;;;7.11;83.14;100267.90;107846;1256;60742;-79
2023/03/24 02:13:45;;;;;;;;;;;;;;;7.14;83.15;100268.02;107337;1256;124870;-80
2023/03/24 02:16:31;;;;;;;;;;;;;;;7.19;83.28;100263.61;107807;1259;73687;-79
2023/03/24 02:19:16;;;;;;;;;;;;;;;7.23;83.27;100269.14;107558;1257;124746;-80
2023/03/24 02:21:59;;;;;;;;;;;;;;;7.28;83.31;100271.20;107471;1256;72445;-83
2023/03/24 02:24:31;;;;;;;;;;;;;;;7.32;83.35;100276.58;107451;1255;124858;-84
2023/03/24 02:27:05;;;;;;;;;;;;;;;7.35;83.35;100285.92;107665;1259;62178;-83
2023/03/24 02:29:54;;;;;;;;;;;;;;;7.35;83.30;100280.52;107731;1257;75444;-84
2023/03/24 02:32:24;;;;;;;;;;;;;;;7.37;83.36;100277.08;107616;1261;66441;-84
2023/03/24 02:34:53;;;;;;;;;;;;;;;7.38;83.35;100271.52;107536;1256;72779;-83
2023/03/24 02:37:20;;;;;;;;;;;;;;;7.40;83.37;100266.35;107372;1257;61212;-83
2023/03/24 02:39:55;;;;;;;;;;;;;;;7.42;83.43;100261.86;107301;1256;60226;-85
2023/03/24 02:42:26;;;;;;;;;;;;;;;7.44;83.46;100256.70;107358;1257;125239;-84
2023/03/24 02:45:13;;;;;;;;;;;;;;;7.47;83.59;100252.40;107242;1257;67075;-84
2023/03/24 02:47:45;;;;;;;;;;;;;;;7.50;83.57;100248.11;107078;1258;72712;-84
2023/03/24 02:50:31;;;;;;;;;;;;;;;7.52;83.65;100242.26;106996;1257;125075;-84
2023/03/24 02:53:25;;;;;;;;;;;;;;;7.54;83.64;100245.81;107480;1259;59514;-84
2023/03/24 02:55:54;;;;;;;;;;;;;;;7.56;83.58;100238.71;107348;1258;124817;-84
2023/03/24 02:58:32;;;;;;;;;;;;;;;7.57;83.61;100236.46;107369;1260;66811;-84
2023/03/24 03:01:05;;;;;;;;;;;;;;;7.57;83.58;100247.99;107261;1254;124697;-83
2023/03/24 03:03:37;;;;;;;;;;;;;;;7.58;83.67;100242.09;107129;1254;59247;-84
2023/03/24 03:06:11;;;;;;;;;;;;;;;7.61;83.78;100240.58;107279;1254;125418;-83
2023/03/24 03:08:38;;;;;;;;;;;;;;;7.63;83.76;100240.30;107566;1254;75352;-83
2023/03/24 03:11:05;;;;;;;;;;;;;;;7.64;83.74;100243.48;107194;1254;65798;-83
2023/03/24 03:13:42;;;;;;;;;;;;;;;7.65;83.76;100239.65;108121;1254;125049;-83
2023/03/24 03:16:12;;;;;;;;;;;;;;;7.66;83.80;100234.80;107316;1254;61458;-84
2023/03/24 03:18:50;;;;;;;;;;;;;;;7.69;83.79;100229.98;107331;1254;125236;-84
2023/03/24 03:21:18;;;;;;;;;;;;;;;7.71;83.89;100226.55;107491;1254;74675;-84
2023/03/24 03:24:12;;;;;;;;;;;;;;;7.73;83.90;100231.86;107664;1254;68050;-82
2023/03/24 03:26:39;;;;;;;;;;;;;;;7.77;83.96;100237.91;107092;1260;71216;-82
2023/03/24 03:29:10;;;;;;;;;;;;;;;7.80;83.97;100234.67;107033;1260;61593;-84
2023/03/24 03:31:40;;;;;;;;;;;;;;;7.83;83.94;100233.70;107125;1260;124943;-83
2023/03/24 03:34:09;;;;;;;;;;;;;;;7.87;84.01;100232.23;107020;1265;73803;-83
2023/03/24 03:36:48;;;;;;;;;;;;;;;7.91;83.94;100226.91;106988;1265;125702;-83
2023/03/24 03:39:29;;;;;;;;;;;;;;;7.94;83.98;100217.41;107084;1259;71054;-83
2023/03/24 03:42:10;;;;;;;;;;;;;;;7.99;84.01;100218.93;107019;1260;125847;-83
2023/03/24 03:44:37;;;;;;;;;;;;;;;8.01;83.97;100214.63;107132;1263;60432;-84
2023/03/24 03:47:04;;;;;;;;;;;;;;;8.04;83.85;100208.23;107293;1261;74738;-81
2023/03/24 03:49:31;;;;;;;;;;;;;;;8.05;83.81;100214.73;107214;1259;124915;-81
2023/03/24 03:51:58;;;;;;;;;;;;;;;8.06;83.88;100213.17;107139;1265;73015;-82
2023/03/24 03:54:25;;;;;;;;;;;;;;;8.07;83.78;100220.20;107266;1261;126210;-81
2023/03/24 03:56:52;;;;;;;;;;;;;;;8.08;83.82;100220.75;107454;1261;60139;-81
2023/03/24 03:59:25;;;;;;;;;;;;;;;8.10;83.77;100219.73;107373;1261;73667;-80
2023/03/24 04:01:52;;;;;;;;;;;;;;;8.12;83.85;100218.23;107332;1261;125096;-80
2023/03/24 04:04:32;;;;;;;;;;;;;;;8.15;83.85;100206.08;107832;1254;72748;-80
2023/03/24 04:07:17;;;;;;;;;;;;;;;8.17;83.83;100203.52;107633;1258;124891;-81
2023/03/24 04:09:50;;;;;;;;;;;;;;;8.21;83.76;100199.94;107455;1254;60953;-81
2023/03/24 04:12:36;;;;;;;;;;;;;;;8.23;83.75;100193.35;107266;1254;125204;-81
2023/03/24 04:15:07;;;;;;;;;;;;;;;8.25;83.67;100182.03;107713;1254;66849;-80
2023/03/24 04:17:54;;;;;;;;;;;;;;;8.26;83.61;100179.45;107657;1254;71104;-84
2023/03/24 04:20:56;;;;;;;;;;;;;;;8.28;83.59;100178.09;107398;1259;60751;-84
2023/03/24 04:23:25;;;;;;;;;;;;;;;8.29;83.53;100173.91;106754;1264;60152;-83
2023/03/24 04:25:55;;;;;;;;;;;;;;;8.29;83.43;100173.76;107012;1260;125321;-83
2023/03/24 04:28:29;;;;;;;;;;;;;;;8.28;83.38;100171.28;107427;1257;65790;-84
2023/03/24 04:31:00;;;;;;;;;;;;;;;8.26;83.34;100169.48;107258;1254;125142;-84
2023/03/24 04:33:37;;;;;;;;;;;;;;;8.23;83.34;100165.55;107644;1254;59347;-84
2023/03/24 04:36:17;;;;;;;;;;;;;;;8.22;83.45;100163.61;107395;1254;61920;-84
2023/03/24 04:38:46;;;;;;;;;;;;;;;8.22;83.46;100159.92;107316;1254;74762;-84
2023/03/24 04:41:16;;;;;;;;;;;;;;;8.24;83.51;100156.14;107089;1257;65557;-83
2023/03/24 04:43:43;;;;;;;;;;;;;;;8.27;83.50;100151.86;107273;1254;125705;-81
2023/03/24 04:46:10;;;;;;;;;;;;;;;8.29;83.48;100153.65;107233;1254;60057;-84
2023/03/24 04:48:40;;;;;;;;;;;;;;;8.32;83.50;100147.59;107156;1255;124971;-81
2023/03/24 04:51:08;;;;;;;;;;;;;;;8.34;83.56;100142.05;107194;1254;73051;-81
2023/03/24 04:53:36;;;;;;;;;;;;;;;8.35;83.47;100142.60;107799;1254;67233;-81
2023/03/24 04:56:22;;;;;;;;;;;;;;;8.36;83.46;100138.61;107885;1255;125343;-82
2023/03/24 04:58:49;;;;;;;;;;;;;;;8.37;83.41;100137.24;107769;1257;61109;-82
2023/03/24 05:01:20;;;;;;;;;;;;;;;8.39;83.38;100135.36;108833;1258;125867;-82
2023/03/24 05:03:47;;;;;;;;;;;;;;;8.42;83.43;100131.94;108887;1256;73445;-82
2023/03/24 05:06:15;;;;;;;;;;;;;;;8.43;83.41;100129.54;107066;1257;124955;-82
2023/03/24 05:08:42;;;;;;;;;;;;;;;8.46;83.41;100123.69;107217;1262;71866;-82
2023/03/24 05:11:09;;;;;;;;;;;;;;;8.50;83.31;100121.11;107338;1257;61591;-82
2023/03/24 05:13:36;;;;;;;;;;;;;;;8.53;83.34;100119.81;107051;1255;124844;-83
2023/03/24 05:16:03;;;;;;;;;;;;;;;8.57;83.35;100117.46;107198;1257;75089;-82
2023/03/24 05:18:30;;;;;;;;;;;;;;;8.61;83.34;100113.52;107176;1256;125098;-82
2023/03/24 05:20:59;;;;;;;;;;;;;;;8.67;83.25;100113.99;107334;1257;72219;-81
2023/03/24 05:23:26;;;;;;;;;;;;;;;8.69;83.26;100098.83;107406;1256;61447;-81
2023/03/24 05:25:53;;;;;;;;;;;;;;;8.72;83.14;100093.12;107189;1256;125444;-81
2023/03/24 05:28:19;;;;;;;;;;;;;;;8.76;83.17;100097.40;107441;1259;73449;-81
2023/03/24 05:30:46;;;;;;;;;;;;;;;8.79;83.11;100096.23;107262;1257;124812;-82
2023/03/24 05:33:13;;;;;;;;;;;;;;;8.81;83.03;100093.14;108989;1257;71268;-83
2023/03/24 05:35:40;;;;;;;;;;;;;;;8.84;83.00;100094.61;107272;1257;61370;-83
2023/03/24 05:38:07;;;;;;;;;;;;;;;8.87;82.88;100094.84;107173;1256;125159;-82
2023/03/24 05:40:35;;;;;;;;;;;;;;;8.88;82.87;100091.88;107505;1257;74668;-83
2023/03/24 05:43:11;;;;;;;;;;;;;;;8.92;82.87;100086.20;107750;1256;125026;-87
2023/03/24 05:45:52;;;;;;;;;;;;;;;8.96;82.78;100076.48;107240;1257;71403;-84
2023/03/24 05:48:20;;;;;;;;;;;;;;;9.04;82.80;100074.02;107118;1258;125107;-88
2023/03/24 05:50:47;;;;;;;;;;;;;;;9.13;82.82;100070.52;107554;1256;59498;-83
2023/03/24 05:53:16;;;;;;;;;;;;;;;9.21;82.80;100069.10;107782;1257;73409;-83
2023/03/24 05:55:44;;;;;;;;;;;;;;;9.31;82.73;100073.33;107295;1257;124746;-84
2023/03/24 05:58:11;;;;;;;;;;;;;;;9.41;82.64;100072.30;107360;1257;73639;-82
2023/03/24 06:00:39;;;;;;;;;;;;;;;9.52;82.74;100072.66;107380;1260;124946;-80
2023/03/24 06:03:06;;;;;;;;;;;;;;;9.61;82.59;100064.77;107532;1257;62143;-78
2023/03/24 06:05:34;;;;;;;;;;;;;;;9.68;82.33;100062.09;107474;1255;74866;-82
2023/03/24 06:08:03;;;;;;;;;;;;;;;9.72;82.20;100055.67;107398;1256;66804;-83
2023/03/24 06:10:29;;;;;;;;;;;;;;;9.76;82.13;100058.02;107663;1255;71373;-81
2023/03/24 06:12:56;;;;;;;;;;;;;;;9.80;82.01;100051.26;107456;1257;125194;-82
2023/03/24 06:15:26;;;;;;;;;;;;;;;9.84;81.89;100045.20;107574;1257;61357;-82
2023/03/24 06:17:59;;;;;;;;;;;;;;;9.89;81.82;100044.92;107501;1256;75980;-86
2023/03/24 06:20:26;;;;;;;;;;;;;;;9.95;81.80;100042.91;107339;1257;125313;-82
2023/03/24 06:22:57;;;;;;;;;;;;;;;9.99;81.69;100043.16;107598;1256;73209;-82
2023/03/24 06:25:27;;;;;;;;;;;;;;;10.04;81.68;100044.10;107586;1259;125449;-82
2023/03/24 06:27:54;;;;;;;;;;;;;;;10.08;81.63;100038.56;107569;1256;60774;-81
2023/03/24 06:30:27;;;;;;;;;;;;;;;10.10;81.43;100037.20;107490;1257;125315;-81
2023/03/24 06:32:55;;;;;;;;;;;;;;;10.10;81.40;100033.33;107525;1256;67226;-82
2023/03/24 06:35:22;;;;;;;;;;;;;;;10.19;81.51;100037.50;107374;1258;71758;-82
2023/03/24 06:37:50;;;;;;;;;;;;;;;10.26;81.51;100033.76;107400;1257;124415;-82
2023/03/24 06:40:18;;;;;;;;;;;;;;;10.30;81.38;100030.86;107591;1256;59830;-82
2023/03/24 06:42:51;;;;;;;;;;;;;;;10.34;81.17;100023.73;107430;1257;124687;-81
2023/03/24 06:45:18;;;;;;;;;;;;;;;10.36;81.14;100018.48;107528;1256;65234;-81
2023/03/24 06:47:45;;;;;;;;;;;;;;;10.36;80.89;100017.61;107611;1256;72547;-82
2023/03/24 06:50:12;;;;;;;;;;;;;;;10.33;80.94;100013.20;107291;1255;124878;-82
2023/03/24 06:52:40;;;;;;;;;;;;;;;10.33;80.90;100001.96;107673;1256;59645;-82
2023/03/24 06:55:07;;;;;;;;;;;;;;;10.32;80.81;99996.17;107296;1256;124860;-82
2023/03/24 06:57:36;;;;;;;;;;;;;;;10.33;80.88;99988.99;107398;1255;64632;-82
2023/03/24 07:00:10;;;;;;;;;;;;;;;10.36;80.89;99984.99;107555;1255;72067;-82
2023/03/24 07:02:37;;;;;;;;;;;;;;;10.41;81.03;99971.03;107556;1257;61281;-80
2023/03/24 07:05:06;;;;;;;;;;;;;;;10.48;81.00;99962.70;107429;1255;60730;-80
2023/03/24 07:07:34;;;;;;;;;;;;;;;10.57;81.17;99972.47;107979;1253;125455;-82
2023/03/24 07:10:02;;;;;;;;;;;;;;;10.69;81.17;99964.19;108057;1256;67585;-82
2023/03/24 07:12:33;;;;;;;;;;;;;;;10.84;81.19;99964.02;107619;1255;125559;-82
2023/03/24 07:15:03;;;;;;;;;;;;;;;11.00;81.25;99964.89;107843;1255;60280;-82
2023/03/24 07:17:30;;;;;;;;;;;;;;;11.17;81.28;99956.10;108049;1256;61797;-82
2023/03/24 07:19:57;;;;;;;;;;;;;;;11.35;81.24;99949.42;108907;1256;124986;-82
2023/03/24 07:22:26;;;;;;;;;;;;;;;11.53;81.06;99945.00;109027;1256;65501;-82
2023/03/24 07:24:55;;;;;;;;;;;;;;;11.74;81.05;99940.61;108963;1255;124917;-82
2023/03/24 07:27:22;;;;;;;;;;;;;;;11.94;80.79;99936.18;108930;1256;59365;-82
2023/03/24 07:29:49;;;;;;;;;;;;;;;12.13;80.68;99924.70;109070;1256;59949;-82
2023/03/24 07:32:17;;;;;;;;;;;;;;;12.33;80.55;99919.52;108863;1254;125339;-83
2023/03/24 07:34:45;;;;;;;;;;;;;;;12.51;80.25;99913.09;107854;1256;66788;-83
2023/03/24 07:37:12;;;;;;;;;;;;;;;12.68;79.96;99910.34;107738;1256;124863;-82
2023/03/24 07:39:39;;;;;;;;;;;;;;;12.85;79.68;99907.71;107600;1259;59965;-83
2023/03/24 07:42:07;;;;;;;;;;;;;;;13.01;79.29;99905.64;107634;1256;61114;-83
2023/03/24 07:44:36;;;;;;;;;;;;;;;13.17;79.15;99906.19;107683;1256;75954;-82
2023/03/24 07:47:03;;;;;;;;;;;;;;;13.28;78.79;99901.10;107444;1256;67459;-82
2023/03/24 07:49:30;;;;;;;;;;;;;;;13.44;78.66;99895.66;107459;1255;124276;-82
2023/03/24 07:51:57;;;;;;;;;;;;;;;13.52;78.23;99890.90;107592;1256;60876;-82
2023/03/24 07:54:25;;;;;;;;;;;;;;;13.53;77.76;99883.49;107342;1259;124566;-82
2023/03/24 07:56:53;;;;;;;;;;;;;;;13.59;77.59;99884.55;107389;1255;74497;-82
2023/03/24 07:59:20;;;;;;;;;;;;;;;13.63;77.44;99883.30;107694;1256;67569;-82
2023/03/24 08:01:48;;;;;;;;;;;;;;;13.66;77.25;99880.13;107537;1255;124911;-82
2023/03/24 08:04:16;;;;;;;;;;;;;;;13.64;77.05;99875.02;107634;1256;60036;-82
2023/03/24 08:06:43;;;;;;;;;;;;;;;13.61;76.89;99873.44;107428;1255;124403;-84
2023/03/24 08:09:11;;;;;;;;;;;;;;;13.61;76.85;99869.38;107333;1254;74650;-83
2023/03/24 08:11:39;;;;;;;;;;;;;;;13.68;76.86;99865.13;107562;1257;65772;-81
2023/03/24 08:14:06;;;;;;;;;;;;;;;13.72;76.76;99861.60;107935;1256;125436;-81
2023/03/24 08:16:33;;;;;;;;;;;;;;;13.72;76.68;99861.95;108071;1259;60008;-81
2023/03/24 08:19:03;;;;;;;;;;;;;;;13.72;76.57;99856.14;107574;1257;125294;-81
2023/03/24 08:21:30;;;;;;;;;;;;;;;13.74;76.57;99849.42;107644;1256;74628;-81
2023/03/24 08:23:57;;;;;;;;;;;;;;;13.79;76.55;99844.66;107622;1256;67404;-84
2023/03/24 08:26:33;;;;;;;;;;;;;;;13.84;76.40;99836.71;107535;1256;125285;-84
2023/03/24 08:29:01;;;;;;;;;;;;;;;13.85;76.35;99836.54;107892;1256;59335;-84
2023/03/24 08:31:35;;;;;;;;;;;;;;;13.89;76.35;99834.93;107859;1256;125589;-84
2023/03/24 08:34:03;;;;;;;;;;;;;;;13.95;76.44;99834.02;107598;1256;73358;-83
2023/03/24 08:36:30;;;;;;;;;;;;;;;13.99;76.42;99829.07;107432;1256;125711;-81
2023/03/24 08:38:58;;;;;;;;;;;;;;;14.03;76.44;99828.36;107687;1256;72601;-81
2023/03/24 08:41:29;;;;;;;;;;;;;;;14.06;76.33;99832.21;107720;1256;61203;-83
2023/03/24 08:43:56;;;;;;;;;;;;;;;14.08;76.18;99831.34;107425;1256;124445;-84
2023/03/24 08:46:23;;;;;;;;;;;;;;;14.10;76.16;99827.98;107751;1255;74670;-82
2023/03/24 08:48:52;;;;;;;;;;;;;;;14.16;76.34;99821.78;107401;1256;124492;-80
2023/03/24 08:51:19;;;;;;;;;;;;;;;14.32;76.41;99816.76;107464;1256;72692;-80
2023/03/24 08:53:46;;;;;;;;;;;;;;;14.40;76.04;99812.82;107580;1256;61804;-80
2023/03/24 08:56:13;;;;;;;;;;;;;;;14.41;75.97;99806.47;107396;1256;125015;-80
2023/03/24 08:58:40;;;;;;;;;;;;;;;14.52;76.08;99795.81;107688;1253;74810;-80
2023/03/24 09:01:09;;;;;;;;;;;;;;;14.63;76.03;99788.17;107860;1253;125846;-80
2023/03/24 09:03:38;;;;;;;;;;;;;;;14.73;75.86;99776.10;108216;1256;71384;-82
2023/03/24 09:06:18;;;;;;;;;;;;;;;14.77;75.67;99769.53;107830;1253;61257;-82
2023/03/24 09:08:47;;;;;;;;;;;;;;;14.73;75.51;99763.20;107717;1254;63726;-82
2023/03/24 09:11:15;;;;;;;;;;;;;;;14.69;75.38;99757.24;109056;1253;73362;-82
2023/03/24 09:13:42;;;;;;;;;;;;;;;14.56;75.09;99755.72;108668;1253;125152;-82
2023/03/24 09:16:11;;;;;;;;;;;;;;;14.40;74.92;99758.81;107449;1254;72692;-82
2023/03/24 09:18:38;;;;;;;;;;;;;;;14.21;74.84;99757.52;107614;1256;125330;-83
2023/03/24 09:21:06;;;;;;;;;;;;;;;14.01;74.89;99748.98;108443;1253;61199;-82
2023/03/24 09:23:35;;;;;;;;;;;;;;;13.86;75.04;99743.77;107732;1254;74928;-83
2023/03/24 09:26:03;;;;;;;;;;;;;;;13.81;75.37;99733.56;107411;1253;125467;-83
2023/03/24 09:28:30;;;;;;;;;;;;;;;13.98;75.87;99732.79;107534;1260;72723;-83
2023/03/24 09:30:59;;;;;;;;;;;;;;;14.27;76.30;99723.60;107470;1254;124360;-81
2023/03/24 09:33:28;;;;;;;;;;;;;;;14.59;76.26;99717.93;107685;1253;59965;-81
2023/03/24 09:35:55;;;;;;;;;;;;;;;14.90;76.23;99712.20;107446;1254;73416;-82
2023/03/24 09:38:22;;;;;;;;;;;;;;;15.13;75.52;99710.56;107285;1259;124099;-83
2023/03/24 09:40:54;;;;;;;;;;;;;;;15.31;75.34;99703.13;107285;1254;235568;-83
2023/03/24 09:43:26;;;;;;;;;;;;;;;15.51;75.05;99703.95;107965;1254;124466;-83
2023/03/24 09:45:54;;;;;;;;;;;;;;;15.70;74.80;99696.46;107745;1253;60908;-83
2023/03/24 09:48:41;;;;;;;;;;;;;;;15.81;74.40;99688.40;107781;1254;125124;-81
2023/03/24 09:51:14;;;;;;;;;;;;;;;15.85;73.95;99679.31;107544;1253;65695;-81
2023/03/24 09:54:00;;;;;;;;;;;;;;;15.77;73.64;99671.81;107395;1254;71280;-83
2023/03/24 09:56:28;;;;;;;;;;;;;;;15.73;73.68;99664.96;107622;1253;125416;-82
2023/03/24 09:59:02;;;;;;;;;;;;;;;15.78;73.53;99659.08;107492;1253;60206;-82
2023/03/24 10:01:37;;;;;;;;;;;;;;;15.79;73.33;99652.52;107544;1254;124809;-82
2023/03/24 10:04:06;;;;;;;;;;;;;;;15.85;73.46;99646.95;107244;1253;65458;-82
2023/03/24 10:06:38;;;;;;;;;;;;;;;15.94;73.36;99647.70;107702;1255;125042;-80
2023/03/24 10:09:15;;;;;;;;;;;;;;;16.00;73.20;99634.16;107573;1259;61142;-80
2023/03/24 10:11:54;;;;;;;;;;;;;;;15.99;72.98;99632.23;107943;1254;60889;-80
2023/03/24 10:14:25;;;;;;;;;;;;;;;16.00;73.04;99628.33;107981;1253;124398;-80
2023/03/24 10:16:59;;;;;;;;;;;;;;;16.16;73.00;99617.64;107801;1253;65624;-81
2023/03/24 10:19:26;;;;;;;;;;;;;;;16.25;72.63;99620.67;107675;1254;125059;-81
2023/03/24 10:22:00;;;;;;;;;;;;;;;16.27;72.39;99629.67;107939;1253;61146;-81
2023/03/24 10:24:30;;;;;;;;;;;;;;;16.35;72.12;99632.73;107675;1253;124791;-80
2023/03/24 10:27:02;;;;;;;;;;;;;;;16.39;72.13;99636.91;107656;1253;75181;-82
2023/03/24 10:30:04;;;;;;;;;;;;;;;16.39;71.84;99634.45;107696;1253;65573;-83
2023/03/24 10:33:04;;;;;;;;;;;;;;;16.44;71.93;99629.92;107665;1253;124374;-82
2023/03/24 10:38:22;;;;;;;;;;;;;;;16.67;71.88;99622.63;107681;1253;124807;-80
2023/03/24 10:40:50;;;;;;;;;;;;;;;16.80;71.58;99617.43;107491;1260;73225;-79
2023/03/24 10:43:19;;;;;;;;;;;;;;;16.71;70.93;99611.58;107582;1253;125240;-80
2023/03/24 10:45:50;;;;;;;;;;;;;;;16.52;70.76;99608.90;107835;1253;72444;-80
2023/03/24 10:48:40;;;;;;;;;;;;;;;16.35;70.78;99607.42;107586;1253;125541;-82
2023/03/24 10:51:15;;;;;;;;;;;;;;;16.16;70.82;99603.14;107647;1253;61747;-82
2023/03/24 10:53:48;;;;;;;;;;;;;;;16.15;71.32;99599.79;107638;1253;73396;-80
2023/03/24 10:56:16;;;;;;;;;;;;;;;16.23;71.40;99602.14;107647;1254;124174;-80
2023/03/24 10:58:43;;;;;;;;;;;;;;;16.32;71.44;99607.98;107962;1253;71383;-80
2023/03/24 11:01:20;;;;;;;;;;;;;;;16.39;71.31;99607.88;107751;1253;124787;-80
2023/03/24 11:03:48;;;;;;;;;;;;;;;16.52;71.37;99610.48;107956;1256;60434;-82
2023/03/24 11:06:17;;;;;;;;;;;;;;;16.77;71.35;99613.05;107534;1254;124983;-82
2023/03/24 11:08:45;;;;;;;;;;;;;;;17.04;71.16;99611.69;107614;1254;66740;-83
2023/03/24 11:11:32;;;;;;;;;;;;;;;17.13;70.51;99607.63;107615;1256;72539;-83
2023/03/24 11:14:01;;;;;;;;;;;;;;;17.07;70.14;99607.18;107773;1253;124191;-83
2023/03/24 11:16:30;;;;;;;;;;;;;;;17.17;70.21;99607.16;107685;1254;61280;-80
2023/03/24 11:19:01;;;;;;;;;;;;;;;17.35;70.16;99611.94;107558;1253;125216;-81
2023/03/24 11:21:28;;;;;;;;;;;;;;;17.39;69.70;99612.92;107660;1254;66793;-80
2023/03/24 11:24:03;;;;;;;;;;;;;;;17.34;69.42;99615.34;107544;1253;73120;-80
2023/03/24 11:26:34;;;;;;;;;;;;;;;17.28;69.26;99614.05;107359;1253;124525;-80
2023/03/24 11:29:08;;;;;;;;;;;;;;;17.24;69.21;99603.67;107569;1254;60731;-81
2023/03/24 11:31:38;;;;;;;;;;;;;;;17.34;69.30;99599.92;107539;1253;124792;-81
2023/03/24 11:34:09;;;;;;;;;;;;;;;17.49;69.19;99589.11;107618;1254;65130;-81
2023/03/24 11:36:36;;;;;;;;;;;;;;;17.64;68.94;99585.95;107459;1260;124400;-81
2023/03/24 11:39:07;;;;;;;;;;;;;;;17.79;68.88;99587.75;107643;1253;60843;-83
2023/03/24 11:41:34;;;;;;;;;;;;;;;17.93;68.67;99583.17;107851;1253;59990;-80
2023/03/24 11:44:21;;;;;;;;;;;;;;;17.98;68.40;99582.54;107557;1254;124632;-80
2023/03/24 11:46:57;;;;;;;;;;;;;;;18.01;68.25;99580.15;107551;1254;66091;-80
2023/03/24 11:49:25;;;;;;;;;;;;;;;18.08;68.14;99573.77;107778;1256;124655;-80
2023/03/24 11:51:53;;;;;;;;;;;;;;;18.05;67.89;99574.38;108866;1253;59416;-80
2023/03/24 11:54:20;;;;;;;;;;;;;;;17.93;67.56;99573.95;108924;1253;124775;-80
2023/03/24 11:56:51;;;;;;;;;;;;;;;17.78;67.46;99575.52;107375;1254;73397;-82
2023/03/24 11:59:32;;;;;;;;;;;;;;;17.59;67.33;99576.30;107481;1260;67579;-79
2023/03/24 12:01:59;;;;;;;;;;;;;;;17.45;67.57;99575.38;107412;1258;125274;-79
2023/03/24 12:04:36;;;;;;;;;;;;;;;17.33;67.79;99576.70;107709;1256;60031;-79
2023/03/24 12:07:06;;;;;;;;;;;;;;;17.22;67.92;99578.87;107413;1254;125006;-79
2023/03/24 12:09:56;;;;;;;;;;;;;;;17.06;67.95;99576.02;107788;1255;74450;-82
2023/03/24 12:12:23;;;;;;;;;;;;;;;16.87;68.14;99575.50;107812;1257;124897;-79
2023/03/24 12:14:56;;;;;;;;;;;;;;;16.73;68.41;99575.55;107671;1259;72745;-79
2023/03/24 12:17:24;;;;;;;;;;;;;;;16.66;68.66;99571.80;107624;1255;61269;-82
2023/03/24 12:19:55;;;;;;;;;;;;;;;16.69;68.98;99565.73;107192;1256;124200;-84
2023/03/24 12:22:28;;;;;;;;;;;;;;;16.79;69.27;99565.02;107423;1255;72126;-82
2023/03/24 12:25:12;;;;;;;;;;;;;;;16.84;69.25;99559.79;107057;1256;124422;-82
2023/03/24 12:28:12;;;;;;;;;;;;;;;16.80;69.33;99559.49;107439;1255;71133;-79
2023/03/24 12:30:48;;;;;;;;;;;;;;;16.74;69.46;99563.69;106420;1265;124359;-80
2023/03/24 12:33:36;;;;;;;;;;;;;;;16.63;69.31;99556.27;106662;1264;61229;-80
2023/03/24 12:36:06;;;;;;;;;;;;;;;16.48;69.42;99556.38;106552;1264;74858;-80
2023/03/24 12:38:39;;;;;;;;;;;;;;;16.36;69.54;99557.65;106557;1264;125471;-80
2023/03/24 12:41:09;;;;;;;;;;;;;;;16.23;69.81;99555.92;106951;1262;72730;-80
2023/03/24 12:43:54;;;;;;;;;;;;;;;16.14;70.04;99550.77;106742;1261;125431;-80
2023/03/24 12:46:24;;;;;;;;;;;;;;;16.17;70.50;99554.80;106722;1262;60019;-80
2023/03/24 12:48:54;;;;;;;;;;;;;;;16.31;70.79;99546.59;106673;1264;124877;-80
2023/03/24 12:51:24;;;;;;;;;;;;;;;16.41;70.77;99544.46;106650;1264;67111;-80
2023/03/24 12:54:10;;;;;;;;;;;;;;;16.44;70.54;99535.19;106999;1264;71235;-81